Golden Cecilie — VROA6 — position and weather

sailwx.info

Track history (hours):
 
Tides and Currents Weather Stations Pressure Air Temp Water Temp Dewpoint Dewpoint Depression Visibility Wind Speed Wind Dir Waves Ship Positions

Golden Cecilie

Last reported at 2017-Oct-09 01:11 UTC. Time now 2017-Oct-18 11:34 UTC.
Position N 24°27' W 080°10'.
Warning: this ship's position is 9 days out of date.

Length 198 m; draft 11.7 m.

Type: Cargo ship. MMSI: 477289900.

Date/timePositionNaut miles runAvg speedWind from/ knotsBaromVisibWave heightAir tempDewpointWater temp
2017-Oct-09 01:11N 24°27' W 080°10'212.4
2017-Oct-09 00:59N 24°29' W 080°08'612.5
2017-Oct-09 00:29N 24°32' W 080°02'912.8
2017-Oct-08 23:47N 24°37' W 079°54'413.1
2017-Oct-08 23:29N 24°39' W 079°51'712.3
2017-Oct-08 22:53N 24°45' W 079°45'512.2
2017-Oct-08 22:27N 24°50' W 079°43'3811.4
2017-Oct-08 19:08N 25°26' W 079°33'211.6
2017-Oct-08 19:00N 25°28' W 079°32'611.6
2017-Oct-08 18:30N 25°33' W 079°31'611.4
2017-Oct-08 18:00N 25°39' W 079°29'611.2
2017-Oct-08 17:30N 25°44' W 079°28'510.9
2017-Oct-08 17:01N 25°50' W 079°26'511.0
2017-Oct-08 16:31N 25°55' W 079°25'611.2
2017-Oct-08 15:56N 26°01' W 079°23'511.3
2017-Oct-08 15:30N 26°06' W 079°22'611.3
2017-Oct-08 15:00N 26°11' W 079°20'610.2
2017-Oct-08 14:25N 26°16' W 079°16'  
2017-Sep-29 21:57N 37°51' W 030°36'612.5
2017-Sep-29 21:29N 37°52' W 030°29'612.8
2017-Sep-29 21:00N 37°52' W 030°21'612.4
2017-Sep-29 20:30N 37°53' W 030°13'612.8
2017-Sep-29 20:00N 37°54' W 030°05'612.8
2017-Sep-29 19:30N 37°54' W 029°57'713.1
2017-Sep-29 19:00N 37°54' W 029°49'613.0
2017-Sep-29 18:30N 37°55' W 029°41'612.8
2017-Sep-29 18:00N 37°55' W 029°33'612.6
2017-Sep-29 17:30N 37°55' W 029°25'612.8
2017-Sep-29 17:00N 37°55' W 029°16'612.7
2017-Sep-29 16:30N 37°55' W 029°08'612.9
2017-Sep-29 16:00N 37°56' W 029°00'612.7
2017-Sep-29 15:30N 37°56' W 028°52'612.7
2017-Sep-29 15:00N 37°56' W 028°44'612.9
2017-Sep-29 14:30N 37°56' W 028°36'713.2
2017-Sep-29 14:00N 37°56' W 028°28'713.1
2017-Sep-29 13:30N 37°57' W 028°19'612.9
2017-Sep-29 13:00N 37°57' W 028°11'612.8
2017-Sep-29 12:31N 37°57' W 028°03'713.2
2017-Sep-29 12:00N 37°57' W 027°55'713.2
2017-Sep-29 11:30N 37°58' W 027°46'713.5
2017-Sep-29 11:01N 37°58' W 027°38'713.6
2017-Sep-29 10:30N 37°58' W 027°29'713.2
2017-Sep-29 10:00N 37°58' W 027°21'612.8
2017-Sep-29 09:30N 37°58' W 027°13'612.9
2017-Sep-29 09:00N 37°59' W 027°04'713.2
2017-Sep-29 08:30N 37°59' W 026°56'713.3
2017-Sep-29 08:00N 37°59' W 026°48'713.1
2017-Sep-29 07:30N 37°59' W 026°39'612.8
2017-Sep-29 07:00N 37°59' W 026°31'612.9
2017-Sep-29 06:30N 37°59' W 026°23'713.0
2017-Sep-29 06:00N 37°60' W 026°15'612.9
2017-Sep-29 05:30N 37°60' W 026°07'712.9
2017-Sep-29 05:00N 37°60' W 025°58'713.1
2017-Sep-29 04:30N 37°59' W 025°50'612.9
2017-Sep-29 04:00N 37°58' W 025°42'713.1
2017-Sep-29 03:30N 37°57' W 025°34'713.3
2017-Sep-29 03:00N 37°57' W 025°25'612.9
2017-Sep-29 02:30N 37°56' W 025°17'612.9
2017-Sep-29 02:00N 37°55' W 025°09'612.9
2017-Sep-29 01:30N 37°54' W 025°01'  
Track history (hours):
 
Tides and Currents Weather Stations Pressure Air Temp Water Temp Dewpoint Dewpoint Depression Visibility Wind Speed Wind Dir Waves Ship Positions

Golden Cecilie

Last reported at 2017-Oct-09 01:11 UTC. Time now 2017-Oct-18 11:34 UTC.
Position N 24°27' W 080°10'.
Warning: this ship's position is 9 days out of date.

Length 198 m; draft 11.7 m.

Type: Cargo ship. MMSI: 477289900.

Date/timePositionNaut miles runAvg speedWind from/ knotsBaromVisibWave heightAir tempDewpointWater temp
2017-Oct-09 01:11N 24°27' W 080°10'212.4
2017-Oct-09 00:59N 24°29' W 080°08'612.5
2017-Oct-09 00:29N 24°32' W 080°02'912.8
2017-Oct-08 23:47N 24°37' W 079°54'413.1
2017-Oct-08 23:29N 24°39' W 079°51'712.3
2017-Oct-08 22:53N 24°45' W 079°45'512.2
2017-Oct-08 22:27N 24°50' W 079°43'3811.4
2017-Oct-08 19:08N 25°26' W 079°33'211.6
2017-Oct-08 19:00N 25°28' W 079°32'611.6
2017-Oct-08 18:30N 25°33' W 079°31'611.4
2017-Oct-08 18:00N 25°39' W 079°29'611.2
2017-Oct-08 17:30N 25°44' W 079°28'510.9
2017-Oct-08 17:01N 25°50' W 079°26'511.0
2017-Oct-08 16:31N 25°55' W 079°25'611.2
2017-Oct-08 15:56N 26°01' W 079°23'511.3
2017-Oct-08 15:30N 26°06' W 079°22'611.3
2017-Oct-08 15:00N 26°11' W 079°20'610.2
2017-Oct-08 14:25N 26°16' W 079°16'  
2017-Sep-29 21:57N 37°51' W 030°36'612.5
2017-Sep-29 21:29N 37°52' W 030°29'612.8
2017-Sep-29 21:00N 37°52' W 030°21'612.4
2017-Sep-29 20:30N 37°53' W 030°13'612.8
2017-Sep-29 20:00N 37°54' W 030°05'612.8
2017-Sep-29 19:30N 37°54' W 029°57'713.1
2017-Sep-29 19:00N 37°54' W 029°49'613.0
2017-Sep-29 18:30N 37°55' W 029°41'612.8
2017-Sep-29 18:00N 37°55' W 029°33'612.6
2017-Sep-29 17:30N 37°55' W 029°25'612.8
2017-Sep-29 17:00N 37°55' W 029°16'612.7
2017-Sep-29 16:30N 37°55' W 029°08'612.9
2017-Sep-29 16:00N 37°56' W 029°00'612.7
2017-Sep-29 15:30N 37°56' W 028°52'612.7
2017-Sep-29 15:00N 37°56' W 028°44'612.9
2017-Sep-29 14:30N 37°56' W 028°36'713.2
2017-Sep-29 14:00N 37°56' W 028°28'713.1
2017-Sep-29 13:30N 37°57' W 028°19'612.9
2017-Sep-29 13:00N 37°57' W 028°11'612.8
2017-Sep-29 12:31N 37°57' W 028°03'713.2
2017-Sep-29 12:00N 37°57' W 027°55'713.2
2017-Sep-29 11:30N 37°58' W 027°46'713.5
2017-Sep-29 11:01N 37°58' W 027°38'713.6
2017-Sep-29 10:30N 37°58' W 027°29'713.2
2017-Sep-29 10:00N 37°58' W 027°21'612.8
2017-Sep-29 09:30N 37°58' W 027°13'612.9
2017-Sep-29 09:00N 37°59' W 027°04'713.2
2017-Sep-29 08:30N 37°59' W 026°56'713.3
2017-Sep-29 08:00N 37°59' W 026°48'713.1
2017-Sep-29 07:30N 37°59' W 026°39'612.8
2017-Sep-29 07:00N 37°59' W 026°31'612.9
2017-Sep-29 06:30N 37°59' W 026°23'713.0
2017-Sep-29 06:00N 37°60' W 026°15'612.9
2017-Sep-29 05:30N 37°60' W 026°07'712.9
2017-Sep-29 05:00N 37°60' W 025°58'713.1
2017-Sep-29 04:30N 37°59' W 025°50'612.9
2017-Sep-29 04:00N 37°58' W 025°42'713.1
2017-Sep-29 03:30N 37°57' W 025°34'713.3
2017-Sep-29 03:00N 37°57' W 025°25'612.9
2017-Sep-29 02:30N 37°56' W 025°17'612.9
2017-Sep-29 02:00N 37°55' W 025°09'612.9
2017-Sep-29 01:30N 37°54' W 025°01'  

Dump ship's entire track history